Time;durP1;ratioP1;P1;durP2;ratioP2;P2;SDS_P1;SDS_P2;PMS_P1;PMS_P2;Temp;Humidity;BMP_temperature;BMP_pressure;BME280_temperature;BME280_humidity;BME280_pressure;Samples;Min_cycle;Max_cycle;Signal;HPM_P1;HPM_P2
2022/05/17 00:00:21;;;;;;;1.93;1.83;;;23.30;54.20;;;;;;5018791;28;20473;-74
2022/05/17 00:02:49;;;;;;;2.20;2.00;;;23.30;54.30;;;;;;5036656;28;20920;-74
2022/05/17 00:05:18;;;;;;;2.73;1.93;;;23.30;54.50;;;;;;5029995;28;20525;-72
2022/05/17 00:07:48;;;;;;;2.17;2.07;;;23.30;54.40;;;;;;5030586;28;20440;-73
2022/05/17 00:10:16;;;;;;;1.60;1.50;;;23.20;54.20;;;;;;5012332;28;21038;-73
2022/05/17 00:12:45;;;;;;;3.13;1.70;;;23.20;54.20;;;;;;5018375;28;20515;-74
2022/05/17 00:15:13;;;;;;;2.03;1.60;;;23.20;54.20;;;;;;5011898;28;20808;-74
2022/05/17 00:17:42;;;;;;;2.43;1.60;;;23.20;54.20;;;;;;5030695;28;20466;-74
2022/05/17 00:20:12;;;;;;;1.73;1.63;;;23.20;54.30;;;;;;5031654;28;20888;-73
2022/05/17 00:22:41;;;;;;;2.10;1.90;;;23.20;54.20;;;;;;5020206;28;20935;-73
2022/05/17 00:25:13;;;;;;;1.83;1.73;;;23.20;54.10;;;;;;5030583;28;20905;-73
2022/05/17 00:27:41;;;;;;;1.60;1.50;;;23.20;54.10;;;;;;5030537;28;20443;-74
2022/05/17 00:30:11;;;;;;;2.23;2.03;;;23.20;54.20;;;;;;5030323;28;20564;-74
2022/05/17 00:32:39;;;;;;;1.97;1.87;;;23.20;54.30;;;;;;5031619;28;20516;-73
2022/05/17 00:35:09;;;;;;;1.77;1.67;;;23.20;54.30;;;;;;5026959;28;20514;-74
2022/05/17 00:37:37;;;;;;;1.50;1.40;;;23.20;54.30;;;;;;5027221;28;20438;-72
2022/05/17 00:40:08;;;;;;;1.90;1.70;;;23.20;54.40;;;;;;5031307;28;20861;-73
2022/05/17 00:42:37;;;;;;;1.83;1.63;;;23.20;54.50;;;;;;5030182;28;20444;-73
2022/05/17 00:45:07;;;;;;;2.80;2.17;;;23.20;54.40;;;;;;5030776;28;20466;-73
2022/05/17 00:47:40;;;;;;;1.70;1.60;;;23.20;54.30;;;;;;5031534;28;20440;-73
2022/05/17 00:50:21;;;;;;;2.17;1.97;;;23.10;54.40;;;;;;5029945;28;20503;-73
2022/05/17 00:52:53;;;;;;;2.43;2.00;;;23.20;54.50;;;;;;5031379;28;20970;-73
2022/05/17 00:55:24;;;;;;;2.43;1.97;;;23.20;54.50;;;;;;5033441;28;20994;-72
2022/05/17 00:57:57;;;;;;;1.97;1.77;;;23.20;54.50;;;;;;5019605;28;20447;-73
2022/05/17 01:00:27;;;;;;;4.43;2.20;;;23.10;54.30;;;;;;5022473;28;20469;-73
2022/05/17 01:03:00;;;;;;;1.70;1.60;;;23.10;54.40;;;;;;5029231;28;20933;-74
2022/05/17 01:05:31;;;;;;;1.60;1.50;;;23.20;54.40;;;;;;5015304;28;20458;-74
2022/05/17 01:08:00;;;;;;;1.90;1.70;;;23.10;54.40;;;;;;5030423;28;20508;-74
2022/05/17 01:10:30;;;;;;;1.50;1.40;;;23.10;54.30;;;;;;5034627;28;20498;-73
2022/05/17 01:15:47;;;;;;;1.83;1.73;;;23.10;54.30;;;;;;5027215;28;20531;-72
2022/05/17 01:18:16;;;;;;;2.17;1.97;;;23.10;54.30;;;;;;5035046;28;20972;-74
2022/05/17 01:20:45;;;;;;;1.90;1.40;;;23.10;54.30;;;;;;5033400;28;21261;-74
2022/05/17 01:23:15;;;;;;;1.57;1.47;;;23.10;54.30;;;;;;5014199;28;20955;-74
2022/05/17 01:25:44;;;;;;;1.90;1.50;;;23.10;54.30;;;;;;5026261;28;20474;-73
2022/05/17 01:28:17;;;;;;;1.60;1.50;;;23.10;54.30;;;;;;5033938;28;20589;-73
2022/05/17 01:30:46;;;;;;;1.93;1.83;;;23.10;54.30;;;;;;5034133;28;20467;-73
2022/05/17 01:33:15;;;;;;;2.13;1.60;;;23.10;54.40;;;;;;5034791;28;20515;-73
2022/05/17 01:35:43;;;;;;;3.43;1.63;;;23.10;54.40;;;;;;5027191;28;20477;-73
2022/05/17 01:38:12;;;;;;;1.60;1.50;;;23.00;54.40;;;;;;5034353;28;20542;-72
2022/05/17 01:40:42;;;;;;;1.77;1.60;;;23.10;54.40;;;;;;5034376;28;20903;-72
2022/05/17 01:43:10;;;;;;;1.73;1.63;;;23.00;54.30;;;;;;5032554;28;20473;-73
2022/05/17 01:45:38;;;;;;;1.60;1.50;;;23.00;54.30;;;;;;5034000;28;20549;-73
2022/05/17 01:48:07;;;;;;;1.80;1.70;;;23.00;54.30;;;;;;5031826;28;20804;-73
2022/05/17 01:50:36;;;;;;;1.73;1.63;;;23.00;54.30;;;;;;5029975;28;20467;-73
2022/05/17 01:53:05;;;;;;;2.60;1.80;;;23.00;54.30;;;;;;5015025;28;20481;-73
2022/05/17 01:55:34;;;;;;;4.77;2.43;;;23.00;54.20;;;;;;5018367;28;20464;-73
2022/05/17 01:58:03;;;;;;;2.60;1.80;;;23.00;54.20;;;;;;5019598;28;20536;-72
2022/05/17 02:00:32;;;;;;;2.27;1.53;;;23.00;54.10;;;;;;5033778;28;20880;-75
2022/05/17 02:03:00;;;;;;;1.50;1.40;;;23.00;55.40;;;;;;5034625;28;20426;-73
2022/05/17 02:05:28;;;;;;;2.53;1.63;;;23.00;54.20;;;;;;5032756;28;21052;-73
2022/05/17 02:07:56;;;;;;;1.87;1.77;;;23.00;54.20;;;;;;5034002;28;20434;-73
2022/05/17 02:10:25;;;;;;;1.70;1.60;;;23.00;54.20;;;;;;5033182;28;20521;-73
2022/05/17 02:12:56;;;;;;;2.13;1.70;;;23.00;54.30;;;;;;5026216;28;20979;-74
2022/05/17 02:15:25;;;;;;;2.30;1.80;;;23.00;54.30;;;;;;5029367;28;21052;-74
2022/05/17 02:17:55;;;;;;;2.47;2.00;;;23.00;54.30;;;;;;5034172;28;20447;-73
2022/05/17 02:20:23;;;;;;;1.43;1.30;;;23.00;54.20;;;;;;5028788;28;20467;-74
2022/05/17 02:22:53;;;;;;;2.13;1.90;;;22.90;54.10;;;;;;5034166;28;20433;-73
2022/05/17 02:25:21;;;;;;;2.10;1.80;;;22.90;54.20;;;;;;5032925;28;20524;-74
2022/05/17 02:27:50;;;;;;;1.40;1.30;;;22.90;54.30;;;;;;5031310;28;20446;-74
2022/05/17 02:30:19;;;;;;;1.57;1.47;;;22.90;54.30;;;;;;5033152;28;20524;-73
2022/05/17 02:32:49;;;;;;;1.60;1.50;;;22.90;54.20;;;;;;5033575;28;20510;-73
2022/05/17 02:35:17;;;;;;;2.00;1.63;;;22.90;54.20;;;;;;5033132;28;20456;-74
2022/05/17 02:37:45;;;;;;;2.73;1.60;;;22.90;54.30;;;;;;5026175;28;20446;-74
2022/05/17 02:40:13;;;;;;;1.80;1.70;;;22.90;54.20;;;;;;5033353;28;20840;-74
2022/05/17 02:42:42;;;;;;;1.97;1.43;;;22.90;54.10;;;;;;5026089;28;20474;-72
2022/05/17 02:45:11;;;;;;;1.43;1.33;;;22.90;54.20;;;;;;5032287;28;20457;-73
2022/05/17 02:47:39;;;;;;;1.90;1.53;;;22.90;54.20;;;;;;5013998;28;20431;-74
2022/05/17 02:50:10;;;;;;;1.70;1.27;;;22.90;54.20;;;;;;5033926;28;20516;-74
2022/05/17 02:52:38;;;;;;;2.03;1.70;;;22.90;54.20;;;;;;5028999;28;20512;-74
2022/05/17 02:55:08;;;;;;;1.97;1.87;;;22.90;54.30;;;;;;5032505;28;20462;-74
2022/05/17 02:57:38;;;;;;;1.60;1.50;;;22.90;54.20;;;;;;5021312;28;20489;-74
2022/05/17 03:00:09;;;;;;;2.30;2.10;;;22.80;54.10;;;;;;5028620;28;20469;-73
2022/05/17 03:02:37;;;;;;;1.47;1.33;;;22.80;54.10;;;;;;5032516;28;20435;-73
2022/05/17 03:05:09;;;;;;;1.40;1.30;;;22.80;54.20;;;;;;5020562;28;20460;-73
2022/05/17 03:07:38;;;;;;;1.60;1.50;;;22.80;54.20;;;;;;5029685;28;20433;-74
2022/05/17 03:10:07;;;;;;;2.20;1.80;;;22.80;54.20;;;;;;5032590;28;20878;-73
2022/05/17 03:12:35;;;;;;;2.00;1.80;;;22.80;54.10;;;;;;5020127;28;20506;-74
2022/05/17 03:15:04;;;;;;;1.70;1.60;;;22.80;54.10;;;;;;5021011;28;20823;-73
2022/05/17 03:17:33;;;;;;;1.47;1.37;;;22.80;54.10;;;;;;5032897;28;20971;-73
2022/05/17 03:20:01;;;;;;;1.40;1.30;;;22.80;54.10;;;;;;5031748;28;20472;-74
2022/05/17 03:22:30;;;;;;;1.60;1.50;;;22.80;54.20;;;;;;5020478;28;20446;-73
2022/05/17 03:24:58;;;;;;;2.00;1.80;;;22.80;55.30;;;;;;5019107;28;20554;-74
2022/05/17 03:27:47;;;;;;;2.23;1.60;;;22.80;54.10;;;;;;5031980;28;20484;-74
2022/05/17 03:30:15;;;;;;;2.20;2.00;;;22.80;54.20;;;;;;5031799;28;20493;-73
2022/05/17 03:32:43;;;;;;;1.40;1.30;;;22.80;54.20;;;;;;5032373;28;20878;-73
2022/05/17 03:35:12;;;;;;;3.10;1.70;;;22.70;54.20;;;;;;5022969;28;20466;-74
2022/05/17 03:37:41;;;;;;;1.60;1.50;;;22.70;54.20;;;;;;5032565;28;20792;-74
2022/05/17 03:40:11;;;;;;;3.87;1.50;;;22.80;54.20;;;;;;5032119;28;20457;-74
2022/05/17 03:42:40;;;;;;;1.87;1.77;;;22.80;54.30;;;;;;5020675;28;20449;-72
2022/05/17 03:45:09;;;;;;;1.60;1.50;;;22.70;54.30;;;;;;5022671;28;20523;-74
2022/05/17 03:47:37;;;;;;;1.40;1.30;;;22.70;54.30;;;;;;5032587;28;21079;-74
2022/05/17 03:50:07;;;;;;;2.07;1.40;;;22.70;54.30;;;;;;5025863;28;20456;-72
2022/05/17 03:52:35;;;;;;;1.60;1.50;;;22.70;54.20;;;;;;5017423;28;20453;-73
2022/05/17 03:55:07;;;;;;;1.33;1.23;;;22.70;54.30;;;;;;5031201;28;20878;-74
2022/05/17 03:57:35;;;;;;;4.10;1.67;;;22.70;54.30;;;;;;5020801;28;20454;-73
2022/05/17 04:00:06;;;;;;;1.57;1.47;;;22.70;54.30;;;;;;5030026;28;20457;-74
2022/05/17 04:02:40;;;;;;;1.93;1.70;;;22.70;54.40;;;;;;5030873;28;21028;-73
2022/05/17 04:05:10;;;;;;;1.73;1.63;;;22.70;54.30;;;;;;5042358;28;20471;-73
2022/05/17 04:07:39;;;;;;;2.70;1.50;;;22.70;54.40;;;;;;5047032;28;20485;-73
2022/05/17 04:10:11;;;;;;;1.83;1.53;;;22.70;54.40;;;;;;5031344;28;20465;-74
2022/05/17 04:12:39;;;;;;;2.13;1.70;;;22.70;54.30;;;;;;5020413;28;20500;-73
2022/05/17 04:15:11;;;;;;;1.73;1.60;;;22.70;54.30;;;;;;5026726;28;20468;-73
2022/05/17 04:17:39;;;;;;;1.60;1.50;;;22.60;54.30;;;;;;5031424;28;20935;-74
2022/05/17 04:20:15;;;;;;;1.47;1.37;;;22.70;54.40;;;;;;5031559;28;20534;-74
2022/05/17 04:22:44;;;;;;;2.03;1.43;;;22.70;54.40;;;;;;5018807;28;20445;-73
2022/05/17 04:25:15;;;;;;;1.27;1.17;;;22.70;54.30;;;;;;5026634;28;20467;-73
2022/05/17 04:27:46;;;;;;;1.80;1.30;;;22.60;54.30;;;;;;5022661;28;20482;-73
2022/05/17 04:30:14;;;;;;;1.73;1.63;;;22.60;54.30;;;;;;5029608;28;20521;-74
2022/05/17 04:32:46;;;;;;;2.30;2.00;;;22.60;54.30;;;;;;5011909;28;20428;-74
2022/05/17 04:35:17;;;;;;;1.63;1.10;;;22.60;54.40;;;;;;5020505;28;20513;-75
2022/05/17 04:37:50;;;;;;;1.57;1.40;;;22.60;55.60;;;;;;5031503;28;20445;-72
2022/05/17 04:40:20;;;;;;;1.50;1.40;;;22.60;54.30;;;;;;5031068;28;20469;-73
2022/05/17 04:42:49;;;;;;;1.37;1.27;;;22.60;54.30;;;;;;5029064;28;20853;-73
2022/05/17 04:45:18;;;;;;;1.60;1.43;;;22.60;54.40;;;;;;5030650;28;20472;-73
2022/05/17 04:47:47;;;;;;;1.70;1.60;;;22.60;54.40;;;;;;5031421;28;20907;-73
2022/05/17 04:50:17;;;;;;;1.53;1.13;;;22.60;54.40;;;;;;5026722;28;20473;-73
2022/05/17 04:52:46;;;;;;;2.07;1.37;;;22.60;54.50;;;;;;5031467;28;20947;-74
2022/05/17 04:55:16;;;;;;;2.60;1.20;;;22.50;54.40;;;;;;5028250;28;20485;-74
2022/05/17 04:57:46;;;;;;;1.83;1.40;;;22.50;54.40;;;;;;5026682;28;20464;-72
2022/05/17 05:00:17;;;;;;;2.00;1.30;;;22.50;54.40;;;;;;5018008;28;20510;-73
2022/05/17 05:02:45;;;;;;;1.60;1.50;;;22.50;54.50;;;;;;5031373;28;20429;-73
2022/05/17 05:05:14;;;;;;;1.50;1.40;;;22.50;54.50;;;;;;5031024;28;20512;-73
2022/05/17 05:07:43;;;;;;;1.70;1.60;;;22.50;54.50;;;;;;5021502;28;20437;-73
2022/05/17 05:10:12;;;;;;;4.50;1.60;;;22.50;54.60;;;;;;5030743;28;20470;-73
2022/05/17 05:12:41;;;;;;;1.70;1.60;;;22.50;54.60;;;;;;5029310;28;20450;-73
2022/05/17 05:15:12;;;;;;;1.33;1.23;;;22.50;54.60;;;;;;5030418;28;21037;-73
2022/05/17 05:17:40;;;;;;;1.40;1.30;;;22.50;54.70;;;;;;5031380;28;20455;-73
2022/05/17 05:20:11;;;;;;;1.63;1.53;;;22.50;54.70;;;;;;5027190;28;20478;-73
2022/05/17 05:22:40;;;;;;;1.27;1.17;;;22.50;54.70;;;;;;5025825;28;20464;-74
2022/05/17 05:25:12;;;;;;;2.20;1.40;;;22.50;54.80;;;;;;5030333;28;20473;-72
2022/05/17 05:27:41;;;;;;;1.40;1.30;;;22.50;54.80;;;;;;5027355;28;20990;-73
2022/05/17 05:30:15;;;;;;;1.30;1.20;;;22.50;54.80;;;;;;5030255;28;20514;-73
2022/05/17 05:32:43;;;;;;;1.83;1.33;;;22.50;54.90;;;;;;5031260;28;20446;-73
2022/05/17 05:35:12;;;;;;;1.87;1.37;;;22.50;54.90;;;;;;5029774;28;20566;-73
2022/05/17 05:37:40;;;;;;;1.70;1.60;;;22.50;54.90;;;;;;5024814;28;20444;-74
2022/05/17 05:40:09;;;;;;;2.20;2.00;;;22.50;55.00;;;;;;5030471;28;20477;-73
2022/05/17 05:42:39;;;;;;;2.40;1.40;;;22.40;54.90;;;;;;5020036;28;20448;-73
2022/05/17 05:45:11;;;;;;;1.47;1.37;;;22.40;55.00;;;;;;5017341;28;20483;-73
2022/05/17 05:47:40;;;;;;;1.60;1.30;;;22.40;55.00;;;;;;5032594;28;20446;-73
2022/05/17 05:50:09;;;;;;;1.20;1.10;;;22.40;55.00;;;;;;5031491;28;20838;-73
2022/05/17 05:52:37;;;;;;;1.50;1.30;;;22.40;55.10;;;;;;5025227;28;20477;-74
2022/05/17 05:55:07;;;;;;;1.73;1.60;;;22.40;55.00;;;;;;5033897;28;20989;-74
2022/05/17 05:57:35;;;;;;;1.70;1.60;;;22.40;55.10;;;;;;5026578;28;20437;-73
2022/05/17 06:00:06;;;;;;;1.40;1.30;;;22.40;55.10;;;;;;5033300;28;20471;-73
2022/05/17 06:02:40;;;;;;;1.40;1.30;;;22.40;55.10;;;;;;5030201;28;20872;-74
2022/05/17 06:05:09;;;;;;;2.27;1.50;;;22.40;55.10;;;;;;5031287;28;20487;-72
2022/05/17 06:07:37;;;;;;;2.20;1.70;;;22.40;55.10;;;;;;5027327;28;20475;-73
2022/05/17 06:10:07;;;;;;;1.50;1.40;;;22.40;55.20;;;;;;5022923;28;20469;-74
2022/05/17 06:12:35;;;;;;;1.30;1.20;;;22.40;55.30;;;;;;5031297;28;20433;-73
2022/05/17 06:15:04;;;;;;;1.43;1.30;;;22.40;55.20;;;;;;5032813;28;20454;-72
2022/05/17 06:17:33;;;;;;;2.43;1.40;;;22.40;55.30;;;;;;5033096;28;20528;-74
2022/05/17 06:20:03;;;;;;;1.90;1.30;;;22.40;55.30;;;;;;5033689;28;21012;-74
2022/05/17 06:22:31;;;;;;;1.50;1.27;;;22.40;55.30;;;;;;5029608;28;20819;-74
2022/05/17 06:24:59;;;;;;;1.40;1.27;;;22.40;55.30;;;;;;5032752;28;20521;-73
2022/05/17 06:27:27;;;;;;;3.83;1.50;;;22.40;55.30;;;;;;5023866;28;20469;-72
2022/05/17 06:29:57;;;;;;;1.23;1.13;;;22.40;55.40;;;;;;5029256;28;20476;-74
2022/05/17 06:32:25;;;;;;;1.67;1.57;;;22.40;55.40;;;;;;5034273;28;20426;-73
2022/05/17 06:34:53;;;;;;;1.87;1.43;;;22.40;55.40;;;;;;5032995;28;20457;-74
2022/05/17 06:37:22;;;;;;;1.40;1.30;;;22.30;55.30;;;;;;5030872;28;20551;-73
2022/05/17 06:39:50;;;;;;;2.37;1.53;;;22.30;55.40;;;;;;5033328;28;20460;-73
2022/05/17 06:42:19;;;;;;;1.27;1.17;;;22.30;55.40;;;;;;5030696;28;20527;-73
2022/05/17 06:44:47;;;;;;;5.37;1.73;;;22.30;55.50;;;;;;5032671;28;20476;-73
2022/05/17 06:47:15;;;;;;;2.27;1.80;;;22.30;55.50;;;;;;5033739;28;21144;-74
2022/05/17 06:49:43;;;;;;;1.87;1.53;;;22.30;55.50;;;;;;5033559;28;20459;-73
2022/05/17 06:52:11;;;;;;;3.27;1.57;;;22.30;55.60;;;;;;5019483;28;20488;-74
2022/05/17 06:54:43;;;;;;;1.90;1.37;;;22.30;55.60;;;;;;5031098;28;20449;-73
2022/05/17 06:57:15;;;;;;;2.30;1.73;;;22.30;55.50;;;;;;5029227;28;20870;-73
2022/05/17 06:59:44;;;;;;;2.13;1.93;;;22.30;56.10;;;;;;5032256;28;20652;-74
2022/05/17 07:02:14;;;;;;;2.87;1.70;;;22.30;56.40;;;;;;5033186;28;20444;-73
2022/05/17 07:04:43;;;;;;;4.80;1.77;;;22.30;56.50;;;;;;5032567;28;20428;-74
2022/05/17 07:07:11;;;;;;;4.10;1.40;;;22.20;56.60;;;;;;5030400;28;20463;-73
2022/05/17 07:09:39;;;;;;;1.93;1.83;;;22.20;56.50;;;;;;5032850;28;20510;-73
2022/05/17 07:14:55;;;;;;;3.73;1.37;;;22.30;56.50;;;;;;5025302;28;20468;-73
2022/05/17 07:17:26;;;;;;;1.93;1.30;;;22.30;56.30;;;;;;5033137;28;20457;-72
2022/05/17 07:19:54;;;;;;;1.60;1.10;;;22.30;56.40;;;;;;5031880;28;20463;-74
2022/05/17 07:22:22;;;;;;;1.53;1.40;;;22.30;56.30;;;;;;5028558;28;20502;-73
2022/05/17 07:24:50;;;;;;;2.33;1.60;;;22.30;56.30;;;;;;5031716;28;20954;-74
2022/05/17 07:27:19;;;;;;;2.00;1.60;;;22.30;56.30;;;;;;5024079;28;20495;-73
2022/05/17 07:29:48;;;;;;;2.13;1.57;;;22.30;56.20;;;;;;5030633;28;20500;-73
2022/05/17 07:32:16;;;;;;;1.50;1.10;;;22.30;55.90;;;;;;5033062;28;20430;-73
2022/05/17 07:34:47;;;;;;;1.87;1.50;;;22.30;55.80;;;;;;5031639;28;20460;-73
2022/05/17 07:37:18;;;;;;;1.97;1.33;;;22.30;55.90;;;;;;5029895;28;20461;-73
2022/05/17 07:39:46;;;;;;;1.53;1.10;;;22.30;55.80;;;;;;5030459;28;20469;-73
2022/05/17 07:42:15;;;;;;;2.00;1.47;;;22.30;55.80;;;;;;5023779;28;20524;-73
2022/05/17 07:44:45;;;;;;;1.77;1.47;;;22.30;55.80;;;;;;5020136;28;20486;-72
2022/05/17 07:47:16;;;;;;;1.53;1.30;;;22.30;55.90;;;;;;5032520;28;20437;-73
2022/05/17 07:49:44;;;;;;;2.20;1.20;;;22.30;55.80;;;;;;5032668;28;20523;-73
2022/05/17 07:52:12;;;;;;;2.60;1.30;;;22.30;55.80;;;;;;5023022;28;20447;-73
2022/05/17 07:54:41;;;;;;;1.63;1.27;;;22.30;55.70;;;;;;5030617;28;20505;-74
2022/05/17 07:57:09;;;;;;;2.77;1.40;;;22.30;55.70;;;;;;5027420;28;20514;-74
2022/05/17 07:59:37;;;;;;;2.50;1.30;;;22.30;55.80;;;;;;5030816;28;20428;-73
2022/05/17 08:02:07;;;;;;;1.77;1.30;;;22.30;55.80;;;;;;5033543;28;20922;-73
2022/05/17 08:04:36;;;;;;;3.33;1.20;;;22.20;55.80;;;;;;5025940;28;20581;-73
2022/05/17 08:07:05;;;;;;;2.73;1.40;;;22.20;55.60;;;;;;5028752;28;20452;-73
2022/05/17 08:09:35;;;;;;;2.03;1.40;;;22.20;55.70;;;;;;5030791;28;20468;-71
2022/05/17 08:12:04;;;;;;;2.93;1.40;;;22.20;55.60;;;;;;5026297;28;20445;-74
2022/05/17 08:14:32;;;;;;;1.50;1.40;;;22.20;55.60;;;;;;5030283;28;20482;-73
2022/05/17 08:17:00;;;;;;;1.57;1.30;;;22.20;55.60;;;;;;5029223;28;20465;-73
2022/05/17 08:19:30;;;;;;;1.37;1.20;;;22.20;55.70;;;;;;5032031;28;20871;-73
2022/05/17 08:21:58;;;;;;;1.90;1.50;;;22.20;55.50;;;;;;5029012;28;20460;-73
2022/05/17 08:24:27;;;;;;;2.43;1.50;;;22.20;55.60;;;;;;5031688;28;20435;-73
2022/05/17 08:29:41;;;;;;;1.77;1.20;;;22.20;55.60;;;;;;5019823;28;20429;-73
2022/05/17 08:34:56;;;;;;;1.70;1.00;;;22.20;55.70;;;;;;5029841;28;20522;-73
2022/05/17 08:37:24;;;;;;;1.77;1.53;;;22.20;55.60;;;;;;5019338;28;20472;-73
2022/05/17 08:39:52;;;;;;;1.70;1.60;;;22.20;55.60;;;;;;5042959;28;20498;-74
2022/05/17 08:42:25;;;;;;;1.80;1.40;;;22.20;55.60;;;;;;5022914;28;20859;-73
2022/05/17 08:45:02;;;;;;;3.60;1.30;;;22.20;55.80;;;;;;5026244;28;20449;-74
2022/05/17 08:47:39;;;;;;;1.77;1.67;;;22.20;55.60;;;;;;5012260;28;20494;-73
2022/05/17 08:50:34;;;;;;;2.30;1.20;;;22.20;55.40;;;;;;5019601;28;20514;-73
2022/05/17 08:53:03;;;;;;;1.33;1.23;;;22.20;55.40;;;;;;5029397;28;20452;-73
2022/05/17 08:55:33;;;;;;;1.80;1.50;;;22.20;55.60;;;;;;5029782;28;21017;-73
2022/05/17 08:58:06;;;;;;;1.57;1.40;;;22.20;55.70;;;;;;5028339;28;20447;-72
2022/05/17 09:00:40;;;;;;;1.93;1.40;;;22.20;56.80;;;;;;5031356;28;20517;-74
2022/05/17 09:03:20;;;;;;;2.40;1.47;;;22.20;55.60;;;;;;5031423;28;20439;-73
2022/05/17 09:05:58;;;;;;;2.07;1.20;;;22.20;55.50;;;;;;5029822;28;21016;-73
2022/05/17 09:08:29;;;;;;;1.70;1.27;;;22.20;55.60;;;;;;5017814;28;20485;-73
2022/05/17 09:11:11;;;;;;;2.20;1.40;;;22.20;55.60;;;;;;5030249;28;20490;-73
2022/05/17 09:13:49;;;;;;;1.57;1.27;;;22.20;55.60;;;;;;5030424;28;20467;-73
2022/05/17 09:16:41;;;;;;;1.60;1.30;;;22.20;55.50;;;;;;5030949;28;20479;-73
2022/05/17 09:19:09;;;;;;;1.50;0.90;;;22.20;55.70;;;;;;5030779;28;20447;-73
2022/05/17 09:21:42;;;;;;;1.40;1.23;;;22.20;55.80;;;;;;5015007;28;20469;-73
2022/05/17 09:24:14;;;;;;;4.07;1.17;;;22.20;55.70;;;;;;5015403;28;20479;-73
2022/05/17 09:26:50;;;;;;;1.63;1.23;;;22.20;55.80;;;;;;5036492;28;20492;-73
2022/05/17 09:29:22;;;;;;;2.73;1.50;;;22.20;55.70;;;;;;5035211;28;20463;-74
2022/05/17 09:31:53;;;;;;;2.10;1.67;;;22.20;55.70;;;;;;5014936;28;20472;-73
2022/05/17 09:34:34;;;;;;;1.77;1.27;;;22.10;55.40;;;;;;5029097;28;20439;-73
2022/05/17 09:37:09;;;;;;;1.33;1.10;;;22.20;55.70;;;;;;5026753;28;20500;-73
2022/05/17 09:39:37;;;;;;;1.37;1.27;;;22.20;55.60;;;;;;5029995;28;20494;-73
2022/05/17 09:42:08;;;;;;;2.73;1.50;;;22.20;55.70;;;;;;5028148;28;20449;-73
2022/05/17 09:44:44;;;;;;;1.83;1.50;;;22.10;55.60;;;;;;5023420;28;20436;-74
2022/05/17 09:47:25;;;;;;;1.83;1.57;;;22.20;55.70;;;;;;5034117;28;20456;-73
2022/05/17 09:52:44;;;;;;;1.67;1.13;;;22.20;55.60;;;;;;5032055;28;20938;-73
2022/05/17 09:55:22;;;;;;;1.30;1.20;;;22.20;55.60;;;;;;5034921;28;20456;-73
2022/05/17 09:58:03;;;;;;;2.37;1.30;;;22.20;55.60;;;;;;5015776;28;21024;-73
2022/05/17 10:00:40;;;;;;;2.40;1.60;;;22.20;55.60;;;;;;5034091;28;20483;-73
2022/05/17 10:03:29;;;;;;;3.17;1.40;;;22.20;55.70;;;;;;5034724;28;20427;-73
2022/05/17 10:06:00;;;;;;;1.50;1.20;;;22.20;55.70;;;;;;5031112;28;20456;-73
2022/05/17 10:08:38;;;;;;;1.93;1.60;;;22.20;55.80;;;;;;5034376;28;20470;-73
2022/05/17 10:11:16;;;;;;;1.57;1.40;;;22.20;55.80;;;;;;5034020;28;20866;-73
2022/05/17 10:14:02;;;;;;;1.97;1.50;;;22.10;55.70;;;;;;5014703;28;20834;-72
2022/05/17 10:16:36;;;;;;;1.40;1.30;;;22.20;55.90;;;;;;5013956;28;20981;-73
2022/05/17 10:19:10;;;;;;;1.37;1.27;;;22.20;55.80;;;;;;5014922;28;20968;-73
2022/05/17 10:21:44;;;;;;;1.37;0.93;;;22.10;55.70;;;;;;5013805;28;20671;-74
2022/05/17 10:24:21;;;;;;;1.77;1.20;;;22.20;55.90;;;;;;5030382;28;20428;-73
2022/05/17 10:26:58;;;;;;;1.57;1.43;;;22.20;55.70;;;;;;5027334;28;20517;-73
2022/05/17 10:29:33;;;;;;;2.50;1.50;;;22.20;55.70;;;;;;5014106;28;20449;-72
2022/05/17 10:32:09;;;;;;;1.83;1.23;;;22.20;55.70;;;;;;5014125;28;20834;-73
2022/05/17 10:35:00;;;;;;;2.97;1.20;;;22.20;55.70;;;;;;5013212;28;20495;-72
2022/05/17 10:37:34;;;;;;;1.20;1.00;;;22.20;55.60;;;;;;5012754;28;20990;-73
2022/05/17 10:40:08;;;;;;;1.60;1.50;;;22.20;55.60;;;;;;5029345;28;20470;-73
2022/05/17 10:42:38;;;;;;;1.53;1.20;;;22.20;55.70;;;;;;5022620;28;20847;-73
2022/05/17 10:45:11;;;;;;;1.50;1.40;;;22.20;55.60;;;;;;5031913;28;20498;-73
2022/05/17 10:47:48;;;;;;;1.63;1.53;;;22.10;55.50;;;;;;5023761;28;20418;-74
2022/05/17 10:50:34;;;;;;;1.23;1.13;;;22.20;55.50;;;;;;5015308;28;20555;-73
2022/05/17 10:53:14;;;;;;;1.67;1.30;;;22.20;55.50;;;;;;5033601;28;20441;-73
2022/05/17 10:55:53;;;;;;;1.80;1.40;;;22.20;55.50;;;;;;5032713;28;20460;-73
2022/05/17 10:58:31;;;;;;;1.47;1.03;;;22.20;55.50;;;;;;5015396;28;20465;-73
2022/05/17 11:01:04;;;;;;;1.17;1.07;;;22.20;55.50;;;;;;5026912;28;20459;-74
2022/05/17 11:04:04;;;;;;;1.20;1.10;;;22.20;55.40;;;;;;5032677;28;20439;-73
2022/05/17 11:06:38;;;;;;;1.47;1.20;;;22.20;55.40;;;;;;5020622;28;20480;-72
2022/05/17 11:09:15;;;;;;;1.27;1.17;;;22.20;55.40;;;;;;5033052;28;20441;-73
2022/05/17 11:12:04;;;;;;;1.37;1.27;;;22.20;55.40;;;;;;5030837;28;21001;-73
2022/05/17 11:14:39;;;;;;;1.20;1.10;;;22.20;55.40;;;;;;5032570;28;20960;-74
2022/05/17 11:17:16;;;;;;;1.63;1.20;;;22.20;55.30;;;;;;5031546;28;20511;-73
2022/05/17 11:19:49;;;;;;;1.70;0.90;;;22.20;55.40;;;;;;5031965;28;20440;-74
2022/05/17 11:22:26;;;;;;;0.80;0.80;;;22.20;55.30;;;;;;5028905;28;20479;-72
2022/05/17 11:25:24;;;;;;;1.80;1.70;;;22.20;55.30;;;;;;5034188;28;20452;-73
2022/05/17 11:28:16;;;;;;;1.07;0.93;;;22.20;55.30;;;;;;5030366;28;20440;-73
2022/05/17 11:30:50;;;;;;;1.40;1.30;;;22.20;55.30;;;;;;5031316;28;20461;-73
2022/05/17 11:33:35;;;;;;;2.50;1.37;;;22.20;55.30;;;;;;5017379;28;20953;-73
2022/05/17 11:36:05;;;;;;;1.97;1.03;;;22.20;55.20;;;;;;5029086;28;20917;-73
2022/05/17 11:38:53;;;;;;;1.87;1.50;;;22.20;55.10;;;;;;5031803;28;21835;-73
2022/05/17 11:41:43;;;;;;;1.73;1.20;;;22.20;55.20;;;;;;5030288;28;20469;-74
2022/05/17 11:44:39;;;;;;;1.13;1.03;;;22.20;55.20;;;;;;5026147;28;20482;-72
2022/05/17 11:47:29;;;;;;;1.23;0.97;;;22.20;55.20;;;;;;5032158;28;20475;-73
2022/05/17 11:50:43;;;;;;;2.50;1.03;;;22.20;55.30;;;;;;5029261;28;20472;-73
2022/05/17 11:53:34;;;;;;;1.23;1.10;;;22.20;55.10;;;;;;5015836;28;20926;-73
2022/05/17 11:56:14;;;;;;;1.50;1.40;;;22.20;55.00;;;;;;5028929;28;21175;-73
2022/05/17 11:58:45;;;;;;;1.67;1.57;;;22.20;55.00;;;;;;5019652;28;20539;-73
2022/05/17 12:01:46;;;;;;;1.20;1.10;;;22.20;55.00;;;;;;5034156;28;20464;-73
2022/05/17 12:04:42;;;;;;;1.47;1.00;;;22.20;55.10;;;;;;5019250;28;20494;-73
2022/05/17 12:07:25;;;;;;;1.80;1.20;;;22.20;56.20;;;;;;5031856;28;20464;-73
2022/05/17 12:09:55;;;;;;;1.90;1.07;;;22.20;55.10;;;;;;5031763;28;20525;-73
2022/05/17 12:12:48;;;;;;;1.33;1.00;;;22.20;55.10;;;;;;5023036;28;20473;-71
2022/05/17 12:15:26;;;;;;;1.10;1.00;;;22.20;55.20;;;;;;5023748;28;20463;-73
2022/05/17 12:18:05;;;;;;;2.40;1.50;;;22.20;55.10;;;;;;5031354;28;20464;-73
2022/05/17 12:20:46;;;;;;;1.23;1.13;;;22.20;55.10;;;;;;5031427;28;20463;-73
2022/05/17 12:23:19;;;;;;;1.20;1.10;;;22.20;55.20;;;;;;5023828;28;20498;-73
2022/05/17 12:25:55;;;;;;;2.07;1.20;;;22.20;55.20;;;;;;5031040;28;20464;-73
2022/05/17 12:28:43;;;;;;;1.43;1.07;;;22.20;55.10;;;;;;5030787;28;20441;-74
2022/05/17 12:31:15;;;;;;;1.50;1.40;;;22.30;55.30;;;;;;5031246;28;20469;-73
2022/05/17 12:33:47;;;;;;;1.00;0.90;;;22.20;55.20;;;;;;5031021;28;20492;-73
2022/05/17 12:36:19;;;;;;;0.87;0.80;;;22.20;55.20;;;;;;5016934;28;20484;-73
2022/05/17 12:44:34;;;;;;;1.10;1.00;;;22.30;55.30;;;;;;5035146;28;20440;-73
2022/05/17 12:47:02;;;;;;;1.33;1.00;;;22.20;55.20;;;;;;5031466;28;20888;-73
2022/05/17 12:49:33;;;;;;;1.10;1.00;;;22.30;55.40;;;;;;5031831;28;20428;-73
2022/05/17 12:52:13;;;;;;;1.57;1.30;;;22.30;55.20;;;;;;5028630;28;20472;-73
2022/05/17 12:54:42;;;;;;;1.10;1.07;;;22.30;55.30;;;;;;5032694;28;20874;-73
2022/05/17 12:57:18;;;;;;;0.90;0.90;;;22.30;55.30;;;;;;5027767;28;20545;-73
2022/05/17 12:59:46;;;;;;;1.00;0.93;;;22.30;55.20;;;;;;5032130;28;20490;-73
2022/05/17 13:02:22;;;;;;;1.10;1.00;;;22.30;55.30;;;;;;5035304;28;20436;-73
2022/05/17 13:04:51;;;;;;;1.03;0.93;;;22.30;55.20;;;;;;5034262;28;20461;-73
2022/05/17 13:07:23;;;;;;;2.00;1.00;;;22.30;55.10;;;;;;5034031;28;20511;-73
2022/05/17 13:10:00;;;;;;;1.90;1.10;;;22.30;55.20;;;;;;5033901;28;20432;-73
2022/05/17 13:12:33;;;;;;;2.33;1.10;;;22.30;55.20;;;;;;5035009;28;20532;-72
2022/05/17 13:15:05;;;;;;;1.00;0.90;;;22.30;55.10;;;;;;5034795;28;20973;-72
2022/05/17 13:17:38;;;;;;;1.07;0.97;;;22.30;55.20;;;;;;5035069;28;20460;-72
2022/05/17 13:20:13;;;;;;;1.60;1.50;;;22.30;55.20;;;;;;5033802;28;20459;-73
2022/05/17 13:22:43;;;;;;;1.10;1.00;;;22.30;55.20;;;;;;5033280;28;20436;-73
2022/05/17 13:25:18;;;;;;;1.00;0.90;;;22.30;55.20;;;;;;5034207;28;20550;-73
2022/05/17 13:27:49;;;;;;;1.20;1.10;;;22.30;55.10;;;;;;5022798;28;20490;-74
2022/05/17 13:30:26;;;;;;;1.20;1.10;;;22.40;55.20;;;;;;5032582;28;20457;-73
2022/05/17 13:32:55;;;;;;;1.10;1.00;;;22.40;55.20;;;;;;5035154;28;20420;-73